createdAt,value
2022-11-20T10:18:06.496Z,9.40
2022-11-20T10:20:47.709Z,9.10
2022-11-20T10:23:22.862Z,8.10
2022-11-20T10:26:01.272Z,9.90
2022-11-20T10:28:36.888Z,8.00
2022-11-20T10:31:09.912Z,10.70
2022-11-20T10:33:50.399Z,6.90
2022-11-20T10:36:27.399Z,17.90
2022-11-20T10:38:54.053Z,8.30
2022-11-20T10:41:27.546Z,8.30
2022-11-20T10:44:56.821Z,7.30
2022-11-20T10:47:26.849Z,7.50
2022-11-20T10:49:56.400Z,7.50
2022-11-20T10:52:33.717Z,8.40
2022-11-20T10:55:20.285Z,9.30
2022-11-20T11:00:17.943Z,6.30
2022-11-20T11:02:48.112Z,7.90
2022-11-20T11:05:19.438Z,8.60
2022-11-20T11:07:49.506Z,9.00
2022-11-20T11:10:30.999Z,10.50
2022-11-20T11:15:39.909Z,7.10
2022-11-20T11:18:11.903Z,9.60
2022-11-20T11:20:39.509Z,8.50
2022-11-20T11:23:23.281Z,9.80
2022-11-20T11:25:57.713Z,9.80
2022-11-20T11:28:27.081Z,9.90
2022-11-20T11:30:55.076Z,9.50
2022-11-20T11:33:23.920Z,10.80
2022-11-20T11:35:58.314Z,10.80
2022-11-20T11:38:35.799Z,8.40
2022-11-20T11:41:04.479Z,8.50
2022-11-20T11:43:54.310Z,8.60
2022-11-20T11:46:21.819Z,7.70
2022-11-20T11:49:01.714Z,7.10
2022-11-20T11:51:35.651Z,9.10
2022-11-20T11:56:31.614Z,9.80
2022-11-20T11:59:03.059Z,7.50
2022-11-20T12:01:42.727Z,9.30
2022-11-20T12:04:48.768Z,7.60
2022-11-20T12:07:46.050Z,8.00
2022-11-20T12:10:24.817Z,8.10
2022-11-20T12:12:54.450Z,5.70
2022-11-20T12:15:26.643Z,4.60
2022-11-20T12:17:54.120Z,6.80
2022-11-20T12:20:25.208Z,6.20
2022-11-20T12:22:55.630Z,7.90
2022-11-20T12:25:28.774Z,8.50
2022-11-20T12:28:15.068Z,6.80
2022-11-20T12:30:56.553Z,8.80
2022-11-20T12:36:20.732Z,8.40
2022-11-20T12:39:00.240Z,9.00
2022-11-20T12:42:34.937Z,23.20
2022-11-20T12:47:34.132Z,26.40
2022-11-20T12:49:43.265Z,23.20
2022-11-20T12:51:13.577Z,22.10
2022-11-20T12:52:23.785Z,21.00
2022-11-20T12:53:32.715Z,19.60
2022-11-20T12:54:47.344Z,20.70
2022-11-20T12:56:51.382Z,20.40
2022-11-20T12:58:06.343Z,19.30
2022-11-20T12:59:34.704Z,18.30
2022-11-20T13:00:44.492Z,16.40
2022-11-20T13:18:46.363Z,18.10
2022-11-20T13:38:49.211Z,20.40
2022-11-20T13:40:52.542Z,21.10
2022-11-20T13:41:56.467Z,21.80
2022-11-20T13:43:01.775Z,21.00
2022-11-20T13:44:12.295Z,22.00
2022-11-20T13:45:25.919Z,23.20
2022-11-20T13:46:39.492Z,21.60
2022-11-20T13:47:48.950Z,21.80
2022-11-20T13:50:17.164Z,22.90
2022-11-20T13:51:25.822Z,21.50
2022-11-20T14:00:24.411Z,9.20
2022-11-20T14:01:30.026Z,7.90
2022-11-20T14:02:32.610Z,8.60
2022-11-20T14:04:04.505Z,8.00
2022-11-20T14:04:59.528Z,9.10
2022-11-20T14:06:04.095Z,9.20
2022-11-20T14:07:07.605Z,9.80
2022-11-20T14:08:14.432Z,9.40
2022-11-20T14:09:27.924Z,9.50
2022-11-20T14:10:32.398Z,9.60
2022-11-20T14:11:35.093Z,10.10
2022-11-20T14:12:37.836Z,8.90
2022-11-20T14:13:40.279Z,8.60
2022-11-20T14:14:48.664Z,10.80
2022-11-20T14:15:57.455Z,8.90
2022-11-20T14:17:07.125Z,9.80
2022-11-20T14:18:28.540Z,8.70
2022-11-20T14:19:31.645Z,9.50
2022-11-20T14:20:34.210Z,7.60
2022-11-20T14:21:36.632Z,7.90
2022-11-20T14:22:39.108Z,8.60
2022-11-20T14:23:41.513Z,9.00
2022-11-20T14:24:43.957Z,8.90
2022-11-20T14:25:46.354Z,9.40
2022-11-20T14:26:49.310Z,8.40
2022-11-20T14:28:00.953Z,7.90
2022-11-20T14:29:03.553Z,7.80
2022-11-20T14:30:06.623Z,8.20
2022-11-20T14:31:17.730Z,8.20
2022-11-20T14:32:23.245Z,8.30
2022-11-20T14:33:26.514Z,8.70
2022-11-20T14:34:31.081Z,8.60
2022-11-20T14:36:36.135Z,7.50
2022-11-20T14:37:39.571Z,9.30
2022-11-20T14:38:43.522Z,7.90
2022-11-20T14:39:51.415Z,8.50
2022-11-20T14:40:54.277Z,7.20
2022-11-20T14:41:56.757Z,8.40
2022-11-20T14:43:00.028Z,8.50
2022-11-20T14:44:03.627Z,8.30
2022-11-20T14:45:06.404Z,8.30
2022-11-20T14:46:09.894Z,8.80
2022-11-20T14:47:18.609Z,8.00
2022-11-20T14:48:22.594Z,8.40
2022-11-20T14:49:25.565Z,9.70
2022-11-20T14:50:29.874Z,8.30
2022-11-20T14:51:39.224Z,9.20
2022-11-20T14:52:50.520Z,8.90
2022-11-20T14:53:53.075Z,8.20
2022-11-20T14:54:56.784Z,7.80
2022-11-20T14:56:00.324Z,7.60
2022-11-20T14:57:04.530Z,7.60
2022-11-20T14:58:20.965Z,8.70
2022-11-20T14:59:24.451Z,8.00
2022-11-20T15:00:27.076Z,9.40
2022-11-20T15:01:30.355Z,9.20
2022-11-20T15:02:32.958Z,8.60
2022-11-20T15:03:37.449Z,8.00
2022-11-20T15:05:47.403Z,7.50
2022-11-20T15:06:51.624Z,7.10
2022-11-20T15:08:07.905Z,7.70
2022-11-20T15:09:14.846Z,8.40
2022-11-20T15:10:27.773Z,8.20
2022-11-20T15:11:31.631Z,7.70
2022-11-20T15:12:38.419Z,7.60
2022-11-20T15:13:41.432Z,8.40
2022-11-20T15:14:44.281Z,6.90
2022-11-20T15:15:51.122Z,7.80
2022-11-20T15:16:53.806Z,7.60
2022-11-20T15:17:56.367Z,7.60
2022-11-20T15:18:59.252Z,7.70
2022-11-20T15:20:02.894Z,6.80
2022-11-20T15:21:10.925Z,8.30
2022-11-20T15:22:19.925Z,8.60
2022-11-20T15:23:22.371Z,10.00
2022-11-20T15:24:25.073Z,7.80
2022-11-20T15:25:29.188Z,8.10
2022-11-20T15:26:32.762Z,8.00
2022-11-20T15:27:35.345Z,7.70
2022-11-20T15:28:40.486Z,9.40
2022-11-20T15:29:43.095Z,7.30
2022-11-20T15:30:49.909Z,8.10
2022-11-20T15:31:53.644Z,6.80
2022-11-20T15:32:56.121Z,8.10
2022-11-20T15:33:58.873Z,8.00
2022-11-20T15:35:01.296Z,9.00
2022-11-20T15:36:03.914Z,7.90
2022-11-20T15:37:06.388Z,9.30
2022-11-20T15:38:08.941Z,9.00
2022-11-20T15:39:12.470Z,8.50
2022-11-20T15:40:15.281Z,7.70
2022-11-20T15:41:17.760Z,9.20
2022-11-20T15:42:20.282Z,8.80
2022-11-20T15:43:22.692Z,8.60
2022-11-20T15:44:25.372Z,8.80
2022-11-20T15:45:29.172Z,8.00
2022-11-20T15:46:39.330Z,9.40
2022-11-20T15:47:41.867Z,9.30
2022-11-20T15:48:48.300Z,8.30
2022-11-20T15:49:51.718Z,9.00
2022-11-20T15:51:12.780Z,8.50
2022-11-20T15:52:15.562Z,8.30
2022-11-20T15:53:18.250Z,8.30
2022-11-20T15:54:22.480Z,9.10
2022-11-20T15:55:25.342Z,9.10
2022-11-20T15:56:27.766Z,8.00
2022-11-20T15:57:30.250Z,7.80
2022-11-20T15:58:32.778Z,10.60
2022-11-20T15:59:37.936Z,8.70
2022-11-20T16:00:40.511Z,9.50
2022-11-20T16:01:43.078Z,9.70
2022-11-20T16:02:45.651Z,9.20
2022-11-20T16:03:48.278Z,8.80
2022-11-20T16:04:50.774Z,9.20
2022-11-20T16:05:53.228Z,11.00
2022-11-20T16:06:56.161Z,9.00
2022-11-20T16:07:58.806Z,8.50
2022-11-20T16:09:01.370Z,8.40
2022-11-20T16:10:04.251Z,8.30
2022-11-20T16:11:06.767Z,8.10
2022-11-20T16:12:30.554Z,7.50
2022-11-20T16:13:51.945Z,8.90
2022-11-20T16:15:13.863Z,7.90
2022-11-20T16:16:20.729Z,8.40
2022-11-20T16:17:43.391Z,8.40
2022-11-20T16:18:45.877Z,8.70
2022-11-20T16:19:48.393Z,8.00
2022-11-20T16:20:52.525Z,6.50
2022-11-20T16:21:59.628Z,7.80
2022-11-20T16:23:05.160Z,7.50
2022-11-20T16:24:09.216Z,7.80
2022-11-20T16:25:11.701Z,8.70
2022-11-20T16:26:16.801Z,8.50
2022-11-20T16:27:19.263Z,8.40
2022-11-20T16:28:21.783Z,7.80
2022-11-20T16:29:24.291Z,7.80
2022-11-20T16:30:27.250Z,7.20
2022-11-20T16:31:30.102Z,7.60
2022-11-20T16:32:32.561Z,8.00
2022-11-20T16:33:34.986Z,8.20
2022-11-20T16:34:37.462Z,8.30
2022-11-20T16:35:39.956Z,7.50
2022-11-20T16:36:43.434Z,9.30
2022-11-20T16:37:45.917Z,7.70
2022-11-20T16:38:52.685Z,7.60
2022-11-20T16:39:57.280Z,8.20
2022-11-20T16:42:04.683Z,7.00
2022-11-20T16:43:08.364Z,7.80
2022-11-20T16:44:11.640Z,7.70
2022-11-20T16:45:14.170Z,7.60
2022-11-20T16:46:17.475Z,9.00
2022-11-20T16:47:19.971Z,8.00
2022-11-20T16:48:22.536Z,6.80
2022-11-20T16:49:25.046Z,6.90
2022-11-20T16:50:27.482Z,8.30
2022-11-20T16:51:30.930Z,8.00
2022-11-20T16:52:33.570Z,9.70
2022-11-20T16:53:36.152Z,9.00
2022-11-20T16:54:38.600Z,8.70
2022-11-20T16:55:41.102Z,8.20
2022-11-20T16:56:43.791Z,7.90
2022-11-20T16:57:46.338Z,9.20
2022-11-20T16:58:49.671Z,8.40
2022-11-20T16:59:52.200Z,9.30
2022-11-20T17:00:54.694Z,11.20
2022-11-20T17:01:57.273Z,9.50
2022-11-20T17:02:59.852Z,9.90
2022-11-20T17:04:04.399Z,7.70
2022-11-20T17:06:12.950Z,7.60
2022-11-20T17:07:15.747Z,8.20
2022-11-20T17:08:18.238Z,9.10
2022-11-20T17:09:20.723Z,7.70
2022-11-20T17:10:23.274Z,8.00
2022-11-20T17:11:26.429Z,8.30
2022-11-20T17:12:28.904Z,8.40
2022-11-20T17:13:34.845Z,8.40
2022-11-20T17:14:39.895Z,7.60
2022-11-20T17:15:42.406Z,7.80
2022-11-20T17:16:45.287Z,8.40
2022-11-20T17:17:47.772Z,7.50
2022-11-20T17:18:50.626Z,8.00
2022-11-20T17:19:53.170Z,8.30
2022-11-20T17:20:55.723Z,7.70
2022-11-20T17:21:58.426Z,8.40
2022-11-20T17:23:00.782Z,8.20
2022-11-20T17:24:07.648Z,8.00
2022-11-20T17:25:10.208Z,7.40
2022-11-20T17:26:17.763Z,7.70
2022-11-20T17:27:20.260Z,8.10
2022-11-20T17:28:22.756Z,8.60
2022-11-20T17:29:25.345Z,8.70
2022-11-20T17:30:27.903Z,7.90
2022-11-20T17:31:31.124Z,9.60
2022-11-20T17:32:33.693Z,8.50
2022-11-20T17:33:36.779Z,9.00
2022-11-20T17:34:39.178Z,8.00
2022-11-20T17:35:41.640Z,9.50
2022-11-20T17:36:47.366Z,8.40
2022-11-20T17:37:49.821Z,8.70
2022-11-20T17:38:52.339Z,8.40
2022-11-20T17:39:54.809Z,7.10
2022-11-20T17:41:05.180Z,9.90
2022-11-20T17:42:26.241Z,8.80
2022-11-20T17:43:34.304Z,7.90
2022-11-20T17:44:38.326Z,7.40
2022-11-20T17:45:40.869Z,9.70
2022-11-20T17:46:43.368Z,8.60
2022-11-20T17:47:46.715Z,9.80
2022-11-20T17:48:49.589Z,7.80
2022-11-20T17:49:52.196Z,7.70
2022-11-20T17:50:59.137Z,9.20
2022-11-20T17:52:01.691Z,9.00
2022-11-20T17:53:04.202Z,7.90
2022-11-20T17:54:09.690Z,10.40
2022-11-20T17:55:12.195Z,8.10
2022-11-20T17:56:33.852Z,10.70
2022-11-20T17:57:57.088Z,8.30
2022-11-20T17:58:59.754Z,7.50
2022-11-20T18:00:02.270Z,7.70
2022-11-20T18:01:08.127Z,7.60
2022-11-20T18:02:13.430Z,8.20
2022-11-20T18:03:15.979Z,7.50
2022-11-20T18:04:18.457Z,8.00
2022-11-20T18:05:20.991Z,7.50
2022-11-20T18:06:25.062Z,7.50
2022-11-20T18:07:27.629Z,7.20
2022-11-20T18:08:30.073Z,8.80
2022-11-20T18:09:32.489Z,8.20
2022-11-20T18:10:35.201Z,9.30
2022-11-20T18:11:38.860Z,10.00
2022-11-20T18:12:41.317Z,8.80
2022-11-20T18:14:03.651Z,8.20
2022-11-20T18:15:06.313Z,7.30
2022-11-20T18:16:08.809Z,8.60
2022-11-20T18:17:12.577Z,7.50
2022-11-20T18:18:15.014Z,9.50
2022-11-20T18:19:18.969Z,7.90
2022-11-20T18:20:29.435Z,8.40
2022-11-20T18:21:33.693Z,7.80
2022-11-20T18:22:36.712Z,7.20
2022-11-20T18:23:39.151Z,8.20
2022-11-20T18:24:42.197Z,8.10
2022-11-20T18:25:47.364Z,7.30
2022-11-20T18:26:49.881Z,7.20
2022-11-20T18:27:52.411Z,7.50
2022-11-20T18:28:54.886Z,6.90
2022-11-20T18:29:57.350Z,7.50
2022-11-20T18:31:04.454Z,6.20
2022-11-20T18:32:07.013Z,6.70
2022-11-20T18:33:09.519Z,6.50
2022-11-20T18:34:14.172Z,7.00
2022-11-20T18:35:16.728Z,6.20
2022-11-20T18:36:20.359Z,6.40
2022-11-20T18:37:22.990Z,6.80
2022-11-20T18:38:25.418Z,7.00
2022-11-20T18:39:27.927Z,7.60
2022-11-20T18:40:31.019Z,6.00
2022-11-20T18:41:51.909Z,5.90
2022-11-20T18:43:14.701Z,6.30
2022-11-20T18:44:39.994Z,5.90
2022-11-20T18:45:42.499Z,4.90
2022-11-20T18:46:45.566Z,4.10
2022-11-20T18:47:48.073Z,4.80
2022-11-20T18:48:50.523Z,3.30
2022-11-20T18:49:53.983Z,3.90
2022-11-20T18:51:03.939Z,4.50
2022-11-20T18:52:06.468Z,3.50
2022-11-20T18:53:08.938Z,3.60
2022-11-20T18:54:12.130Z,3.20
2022-11-20T18:55:14.713Z,3.40
2022-11-20T18:56:17.096Z,3.50
2022-11-20T18:57:20.471Z,4.30
2022-11-20T18:58:22.981Z,2.90
2022-11-20T18:59:25.344Z,3.00
2022-11-20T19:00:27.880Z,3.00
2022-11-20T19:01:30.576Z,2.80
2022-11-20T19:02:37.908Z,2.60
2022-11-20T19:03:44.095Z,2.50
2022-11-20T19:04:46.575Z,2.30
2022-11-20T19:05:48.987Z,2.10
2022-11-20T19:06:53.401Z,5.30
2022-11-20T19:07:55.949Z,2.40
2022-11-20T19:08:58.344Z,2.20
2022-11-20T19:10:03.605Z,2.10
2022-11-20T19:11:07.392Z,2.00
2022-11-20T19:12:10.619Z,1.80
2022-11-20T19:13:13.048Z,2.30
2022-11-20T19:14:15.626Z,2.60
2022-11-20T19:15:18.352Z,1.90
2022-11-20T19:16:22.439Z,2.10
2022-11-20T19:17:25.053Z,1.70
2022-11-20T19:18:28.441Z,3.00
2022-11-20T19:19:30.906Z,2.00
2022-11-20T19:20:33.354Z,1.70
2022-11-20T19:21:35.889Z,2.10
2022-11-20T19:22:38.365Z,2.10
2022-11-20T19:23:41.107Z,1.70
2022-11-20T19:24:43.591Z,1.80
2022-11-20T19:25:46.029Z,2.80
2022-11-20T19:26:48.599Z,1.80
2022-11-20T19:27:51.039Z,1.60
2022-11-20T19:28:53.950Z,1.90
2022-11-20T19:30:03.247Z,1.80
2022-11-20T19:31:10.448Z,1.60
2022-11-20T19:32:12.895Z,1.60
2022-11-20T19:33:15.388Z,1.50
2022-11-20T19:34:18.226Z,1.40
2022-11-20T19:35:20.771Z,1.80
2022-11-20T19:36:25.767Z,3.10
2022-11-20T19:37:28.289Z,2.10
2022-11-20T19:38:31.044Z,2.20
2022-11-20T19:39:35.460Z,2.00
2022-11-20T19:40:37.854Z,2.40
2022-11-20T19:41:40.674Z,1.70
2022-11-20T19:42:43.071Z,1.70
2022-11-20T19:43:49.748Z,1.70
2022-11-20T19:44:52.998Z,1.50
2022-11-20T19:45:55.473Z,2.10
2022-11-20T19:46:58.670Z,1.30
2022-11-20T19:48:07.723Z,2.40
2022-11-20T19:49:12.184Z,2.20
2022-11-20T19:50:15.974Z,1.70
2022-11-20T19:51:19.842Z,1.80
2022-11-20T19:52:22.336Z,2.00
2022-11-20T19:53:24.844Z,1.60
2022-11-20T19:54:27.431Z,1.80
2022-11-20T19:55:29.907Z,2.30
2022-11-20T19:56:33.105Z,2.00
2022-11-20T19:57:35.665Z,2.30
2022-11-20T19:58:38.573Z,1.70
2022-11-20T19:59:41.757Z,2.70
2022-11-20T20:00:44.244Z,2.00
2022-11-20T20:01:46.738Z,1.80
2022-11-20T20:02:49.260Z,2.00
2022-11-20T20:03:52.655Z,1.70
2022-11-20T20:04:55.142Z,2.10
2022-11-20T20:06:00.721Z,1.80
2022-11-20T20:07:04.092Z,1.30
2022-11-20T20:08:06.676Z,1.90
2022-11-20T20:09:10.596Z,1.70
2022-11-20T20:10:13.241Z,2.30
2022-11-20T20:11:17.400Z,1.50
2022-11-20T20:12:19.813Z,1.60
2022-11-20T20:13:22.317Z,1.70
2022-11-20T20:14:24.810Z,1.30
2022-11-20T20:15:27.219Z,1.60
2022-11-20T20:16:29.844Z,2.20
2022-11-20T20:17:32.400Z,1.80
2022-11-20T20:18:34.987Z,1.70
2022-11-20T20:19:37.474Z,2.20
2022-11-20T20:20:39.936Z,2.20
2022-11-20T20:21:42.890Z,1.90
2022-11-20T20:22:45.296Z,2.00
2022-11-20T20:23:50.337Z,2.00
2022-11-20T20:24:52.799Z,1.80
2022-11-20T20:25:55.245Z,2.00
2022-11-20T20:26:58.477Z,1.50
2022-11-20T20:28:01.132Z,1.90
2022-11-20T20:29:04.001Z,1.70
2022-11-20T20:30:07.500Z,1.20
2022-11-20T20:31:11.235Z,2.60
2022-11-20T20:32:13.751Z,1.70
2022-11-20T20:33:16.301Z,1.50
2022-11-20T20:34:18.771Z,1.50
2022-11-20T20:35:21.302Z,1.50
2022-11-20T20:36:24.509Z,2.20
2022-11-20T20:37:27.018Z,1.40
2022-11-20T20:38:29.593Z,1.90
2022-11-20T20:39:32.059Z,1.50
2022-11-20T20:40:34.759Z,1.40
2022-11-20T20:41:37.228Z,1.40
2022-11-20T20:42:39.714Z,1.70
2022-11-20T20:44:00.954Z,1.30
2022-11-20T20:45:06.503Z,1.60
2022-11-20T20:46:08.885Z,1.20
2022-11-20T20:47:11.295Z,3.40
2022-11-20T20:48:14.503Z,3.00
2022-11-20T20:49:16.955Z,2.60
2022-11-20T20:50:19.489Z,1.20
2022-11-20T20:51:22.686Z,1.80
2022-11-20T20:52:28.056Z,2.00
2022-11-20T20:53:31.028Z,1.50
2022-11-20T20:54:34.587Z,1.40
2022-11-20T20:55:37.230Z,1.50
2022-11-20T20:56:39.737Z,1.20
2022-11-20T20:57:42.301Z,1.50
2022-11-20T20:58:44.920Z,2.50
2022-11-20T20:59:47.356Z,1.80
2022-11-20T21:00:50.182Z,1.10
2022-11-20T21:01:52.703Z,1.70
2022-11-20T21:02:55.355Z,1.30
2022-11-20T21:03:57.889Z,2.60
2022-11-20T21:05:00.264Z,1.60
2022-11-20T21:06:03.280Z,1.70
2022-11-20T21:07:05.841Z,1.10
2022-11-20T21:08:24.802Z,1.60
2022-11-20T21:09:27.373Z,1.30
2022-11-20T21:10:31.248Z,1.40
2022-11-20T21:11:33.757Z,1.00
2022-11-20T21:12:36.273Z,1.30
2022-11-20T21:13:39.772Z,1.20
2022-11-20T21:14:42.395Z,1.10
2022-11-20T21:15:46.770Z,1.30
2022-11-20T21:16:49.446Z,1.20
2022-11-20T21:17:51.933Z,1.30
2022-11-20T21:18:54.370Z,1.00
2022-11-20T21:19:56.882Z,1.30
2022-11-20T21:21:18.237Z,1.40
2022-11-20T21:22:20.779Z,1.40
2022-11-20T21:23:23.258Z,1.60
2022-11-20T21:24:35.616Z,1.60
2022-11-20T21:25:38.471Z,1.10
2022-11-20T21:26:40.959Z,3.40
2022-11-20T21:27:43.400Z,1.10
2022-11-20T21:28:45.849Z,1.10
2022-11-20T21:29:48.402Z,1.70
2022-11-20T21:30:50.889Z,1.10
2022-11-20T21:31:54.132Z,1.00
2022-11-20T21:32:56.589Z,0.90
2022-11-20T21:33:59.421Z,0.70
2022-11-20T21:35:01.863Z,1.90
2022-11-20T21:36:04.551Z,1.10
2022-11-20T21:37:07.068Z,0.60
2022-11-20T21:38:09.634Z,1.00
2022-11-20T21:39:12.635Z,1.60
2022-11-20T21:40:15.331Z,0.90
2022-11-20T21:41:17.824Z,1.10
2022-11-20T21:42:20.252Z,1.20
2022-11-20T21:43:22.745Z,1.30
2022-11-20T21:44:32.427Z,0.90
2022-11-20T21:45:35.199Z,1.10
2022-11-20T21:46:38.799Z,1.00
2022-11-20T21:47:41.292Z,1.00
2022-11-20T21:48:44.822Z,1.20
2022-11-20T21:49:47.254Z,0.80
2022-11-20T21:50:49.778Z,1.90
2022-11-20T21:51:53.633Z,1.80
2022-11-20T21:52:56.095Z,2.40
2022-11-20T21:53:58.797Z,1.60
2022-11-20T21:55:01.346Z,1.20
2022-11-20T21:56:04.653Z,1.20
2022-11-20T21:57:07.138Z,1.10
2022-11-20T21:58:09.685Z,1.10
2022-11-20T21:59:13.819Z,1.20
2022-11-20T22:00:16.553Z,0.90
2022-11-20T22:01:23.388Z,0.90
2022-11-20T22:02:25.904Z,2.00
2022-11-20T22:03:28.381Z,0.80
2022-11-20T22:04:30.818Z,0.80
2022-11-20T22:05:33.407Z,1.00
2022-11-20T22:06:35.898Z,0.80
2022-11-20T22:07:38.438Z,1.40
2022-11-20T22:08:40.921Z,0.90
2022-11-20T22:09:44.103Z,1.10
2022-11-20T22:10:53.396Z,1.10
2022-11-20T22:11:55.830Z,0.90
2022-11-20T22:13:18.286Z,1.10
2022-11-20T22:14:20.904Z,1.00
2022-11-20T22:15:45.585Z,0.90
2022-11-20T22:16:46.535Z,1.10
2022-11-20T22:18:08.031Z,1.00
2022-11-20T22:19:10.450Z,1.80
2022-11-20T22:20:12.852Z,1.20
2022-11-20T22:21:16.001Z,2.00
2022-11-20T22:22:18.497Z,1.20
2022-11-20T22:23:20.982Z,1.00
2022-11-20T22:24:23.981Z,1.50
2022-11-20T22:25:26.742Z,1.10
2022-11-20T22:26:31.260Z,0.90
2022-11-20T22:27:35.545Z,1.30
2022-11-20T22:28:38.053Z,0.90
2022-11-20T22:29:40.811Z,1.00
2022-11-20T22:30:43.230Z,1.00
2022-11-20T22:31:45.716Z,1.80
2022-11-20T22:32:48.233Z,1.10
2022-11-20T22:33:50.958Z,0.90
2022-11-20T22:34:53.489Z,1.60
2022-11-20T22:36:09.828Z,1.80
2022-11-20T22:37:12.220Z,0.90
2022-11-20T22:38:14.660Z,0.80
2022-11-20T22:39:17.655Z,1.00
2022-11-20T22:40:20.623Z,1.00
2022-11-20T22:41:33.120Z,1.10
2022-11-20T22:42:35.611Z,1.30
2022-11-20T22:43:38.321Z,1.90
2022-11-20T22:44:40.874Z,1.00
2022-11-20T22:45:43.393Z,1.20
2022-11-20T22:46:46.032Z,2.00
2022-11-20T22:47:48.624Z,1.50
2022-11-20T22:48:51.227Z,1.00
2022-11-20T22:49:53.703Z,0.90
2022-11-20T22:51:03.655Z,2.70
2022-11-20T22:52:06.140Z,2.40
2022-11-20T22:53:09.553Z,1.10
2022-11-20T22:54:12.655Z,1.90
2022-11-20T22:55:16.403Z,1.10
2022-11-20T22:56:19.835Z,1.40
2022-11-20T22:57:22.275Z,1.40
2022-11-20T22:58:24.767Z,1.20
2022-11-20T22:59:27.224Z,1.20
2022-11-20T23:00:29.659Z,1.40
2022-11-20T23:01:33.511Z,1.40
2022-11-20T23:02:36.081Z,1.20
2022-11-20T23:03:39.162Z,1.40
2022-11-20T23:04:41.656Z,1.40
2022-11-20T23:05:44.121Z,1.10
2022-11-20T23:06:46.736Z,1.20
2022-11-20T23:07:49.349Z,1.30
2022-11-20T23:08:52.226Z,1.70
2022-11-20T23:09:54.778Z,1.20
2022-11-20T23:11:04.563Z,1.30
2022-11-20T23:12:07.163Z,1.10
2022-11-20T23:13:09.709Z,1.10
2022-11-20T23:14:13.175Z,1.90
2022-11-20T23:15:15.757Z,1.00
2022-11-20T23:16:19.859Z,1.20
2022-11-20T23:17:22.416Z,1.50
2022-11-20T23:18:24.824Z,0.90
2022-11-20T23:19:27.329Z,1.80
2022-11-20T23:20:29.860Z,1.10
2022-11-20T23:21:32.721Z,1.10
2022-11-20T23:22:35.286Z,2.90
2022-11-20T23:23:38.144Z,1.50
2022-11-20T23:24:40.632Z,1.40
2022-11-20T23:25:43.177Z,1.60
2022-11-20T23:26:47.952Z,1.20
2022-11-20T23:27:50.435Z,1.20
2022-11-20T23:28:53.702Z,0.90
2022-11-20T23:29:59.011Z,1.90
2022-11-20T23:31:01.807Z,1.20
2022-11-20T23:32:04.404Z,1.00
2022-11-20T23:33:06.825Z,1.10
2022-11-20T23:34:09.508Z,0.70
2022-11-20T23:35:11.996Z,1.40
2022-11-20T23:36:14.753Z,1.30
2022-11-20T23:37:17.196Z,1.50
2022-11-20T23:38:19.881Z,0.80
2022-11-20T23:39:22.290Z,0.70
2022-11-20T23:40:24.775Z,1.30
2022-11-20T23:41:27.313Z,1.40
2022-11-20T23:42:29.835Z,1.10
2022-11-20T23:43:32.538Z,0.90
2022-11-20T23:44:35.043Z,1.10
2022-11-20T23:45:38.387Z,1.10
2022-11-20T23:46:40.836Z,1.20
2022-11-20T23:47:43.495Z,0.90
2022-11-20T23:48:46.134Z,1.00
2022-11-20T23:49:48.675Z,1.10
2022-11-20T23:50:51.180Z,1.00
2022-11-20T23:51:53.716Z,1.10
2022-11-20T23:52:56.250Z,1.20
2022-11-20T23:54:04.355Z,1.20
2022-11-20T23:55:07.559Z,1.20
2022-11-20T23:56:10.926Z,1.20
2022-11-20T23:57:13.457Z,0.70
2022-11-20T23:58:16.574Z,0.80
2022-11-20T23:59:19.032Z,1.00
